Select your language:
24 hrs Sittard   Hier könnte ihre Werbung stehen!  
  Categoria:   anno:   Nazione:   Percorso:

Classifica tutti i tempi per questa corsa:

Huilo Huilo Trail Run

Distanza: 50km, 50.3km, 49.2km, 45km, Maggiori dettagli sulla corsa.
Parte della classifica: No (2017-2025) Multiple Finishers
 
1 a 244 di 244 risultati della ricerca.
Pos. Prestazione Data Distanza Nome Naz. Anno Pos. M/F Pos. sesso Cat. Pos. Cat.
1 4:21:59 h   24.03.2018 50km  Paredes Reyes, Franco Ezequiel ARG  1996 1 M 1 M20 1
2 4:30:43 h   24.03.2018 50km  Reyes, Gustavo Enrique ARG  1978 2 M 2 M40 1
3 4:35:07 h   08.11.2025 45km  Dure Morales, Kevin Alejandro ARG  1992 1 M 1 M30 1
4 4:44:12 h   25.03.2017 49.2km  Echeverria Boutaud, Roberto CHI  1976 1 M 1 M40 1
5 4:49:06 h   27.11.2021 50.3km  Vera Riquelme, Jorge CHI  1989 1 M 1 M30 1
6 4:50:40 h   25.03.2017 49.2km  Rivas, Mario CHI  1988 2 M 2 M20 1
7 4:59:00 h   25.03.2017 49.2km  Duath Fuentes, Juan Francisco CHI  1992 3 M 3 M20 2
8 5:00:02 h   24.03.2018 50km  Cordero Guaman, Eduardo Andres CHI  1986 3 M 3 M30 1
9 5:01:24 h   25.03.2017 49.2km  Sanchez Nunez, Marcelo Alejandro CHI  1986 4 M 4 M30 1
10 5:07:42 h   08.11.2025 45km  Acuna Cartes, Emmanuel Alexan CHI  1990 2 M 2 M35 1
11 5:08:38 h   27.11.2021 50.3km  Soto Ayamante, Luis Patagon CHI  1986 2 M 2 M35 1
12 5:09:44 h   27.11.2021 50.3km  Martinez Rojas, Jesus Esteban CHI  1978 3 M 3 M40 1
13 5:12:31 h   25.03.2017 49.2km  Olguin, Sebastian CHI  1987 5 M 5 M30 2
14 5:16:05 h   27.11.2021 50.3km  Cordero Guaman, Eduardo Andres CHI  1986 4 M 4 M35 2
15 5:18:43 h   27.11.2021 50.3km  Ortega Leal, Joaquin CHI  1995 5 M 5 M20 1
16 5:22:58 h   27.11.2022 50.3km  Munoz Correa, Miguel Marcelo CHI  1989 1 M 1 M30 1
17 5:29:12 h   08.11.2025 45km  Carlos, Carcamo Hernandez CHI    3 M 3 #NA  
18 5:30:25 h   25.03.2017 49.2km  Brevis Olate, Luis CHI  1992 6 M 6 M20 3
19 5:30:49 h   08.11.2025 45km  Sanchez Nunez, Marcelo Alejandro CHI  1986 4 M 4 M35 2
20 5:30:55 h   27.11.2022 50.3km  Collio Pineda, Alvaro Antonio CHI  1989 2 M 2 M30 2
21 5:33:08 h   24.03.2018 50km  Urra Millaqueo, Richard Alejandro CHI  1982 4 M 4 M35 1
22 5:34:00 h   27.11.2021 50.3km  Zuniga, Cornejo Osvaldo CHI  1987 6 M 6 M30 2
23 5:34:05 h   24.03.2018 50km  Colin Paredes, Oscar CHI  1990 5 M 5 M20 2
24 5:37:03 h   25.03.2017 49.2km  Delanoe, Jaime CHI  1983 7 M 7 M30 3
25 5:40:25 h   24.03.2018 50km  Mellado Guzman, Nicolas Hernan CHI  1987 6 M 6 M30 2
26 5:41:16 h   27.11.2021 50.3km  Vargas Zamora, Mario CHI  1988 7 M 7 M30 3
27 5:42:24 h   24.03.2018 50km  Ramirez Brito, Cindy Evelyn CHI  1986 7 F 1 W30 1
28 5:42:49 h   27.11.2021 50.3km  Mendoza Vallejos, Leandro CHI  1994 8 M 8 M20 2
29 5:44:06 h   25.03.2017 49.2km  Zapata Rosales, Juan Pablo CHI  1984 8 M 8 M30 4
30 5:44:11 h   08.11.2025 45km  Garcia, Rodrigo CHI    5 M 5 #NA  
31 5:46:56 h   24.03.2018 50km  Elias Townsend, Domingo Manuel PER  1973 8 M 7 M45 1
32 5:49:58 h   24.03.2018 50km  Zegarra Quiroz, Elda Rosalia PER  1993 9 F 2 W20 1
33 5:51:27 h   08.11.2025 45km  Freire, Alejandro CHI  1980 6 M 6 M45 1
34 5:52:08 h   25.03.2017 49.2km  Villagran Palacios, Cristian Esteban CHI  1975 9 M 9 M40 2
35 5:55:35 h   24.03.2018 50km  Osorio Neumann, Jose Miguel CHI  1976 10 M 8 M40 2
36 5:55:48 h   27.11.2022 50.3km  Balboa, Felipe CHI  1993 3 M 3 M20 1
37 5:55:53 h   24.03.2018 50km  Aravena, Felipe CHI  1985 11 M 9 M30 3
38 5:56:26 h   27.11.2021 50.3km  Salazar Munoz, Gonzalo Roberto CHI  1983 9 M 9 M35 3
39 5:56:50 h   27.11.2022 50.3km  Torres Delano, Hans Pablo CHI  1981 4 M 4 M40 1
40 5:58:25 h   25.03.2017 49.2km  Ramirez Brito, Cindy Evelyn CHI  1986 10 F 1 W30 1
41 6:00:47 h   08.11.2025 45km  Ignacio, Pedrals Pinochet CHI    7 M 7 #NA  
42 6:03:17 h   25.03.2017 49.2km  Valenzuela Huaiquinao, Ramon CHI  1990 11 M 10 M20 4
43 6:04:13 h   24.03.2018 50km  Santoro Botti, Renzo CHI  1967 12 M 10 M50 1
44 6:04:24 h   27.11.2021 50.3km  Carcamo, Simon CHI  1996 10 M 10 M20 3
45 6:07:04 h   27.11.2021 50.3km  Cabrera, Emilio CHI  1979 11 M 11 M40 2
46 6:10:46 h   27.11.2021 50.3km  Ortega Parra, Mario Martin CHI  1984 12 M 12 M35 4
47 6:11:40 h   08.11.2025 45km  Urra Liempi, Karin Natalia CHI  1981 8 F 1 W40 1
48 6:11:53 h   08.11.2025 45km  Paniconi, Daniel ARG  1970 9 M 8 M55 1
49 6:14:10 h   24.03.2018 50km  Bacigalupo Opazo, Franco CHI  1990 13 M 11 M20 3
50 6:15:42 h   27.11.2021 50.3km  Castillo Andrade, Samuel David CHI  1975 13 M 13 M45 1
51 6:18:20 h   25.03.2017 49.2km  Moya Oyaneder, Rodrigo CHI  1981 12 M 11 M35 1
52 6:18:27 h   25.03.2017 49.2km  Canete Arredondo, Katherine CHI  1984 13 F 2 W30 2
53 6:18:28 h   08.11.2025 45km  Mardones, Juan Jose ARG    10 M 9 #NA  
54 6:18:33 h   08.11.2025 45km  Lopez, Francisco CHI    11 M 10 #NA  
55 6:18:59 h   08.11.2025 45km  Mateo, Villota Horst CHI    12 M 11 #NA  
56 6:19:14 h   24.03.2018 50km  Meneses Farias, Carlos Raul CHI  1990 14 M 12 M20 4
57 6:19:16 h   08.11.2025 45km  Aguirre Leiva, Ezequiel Eduardo ARG  1986 13 M 12 M35 3
58 6:20:52 h   24.03.2018 50km  Perez Olea, Daniel Esteban CHI  1980 15 M 13 M35 2
59 6:21:40 h   08.11.2025 45km  Diaz, Mario ARG    14 M 13 #NA  
60 6:21:52 h   08.11.2025 45km  Obregon, Cristina COL    15 F 2 #NA  
61 6:21:59 h   27.11.2022 50.3km  Toro Betancourt, Jose Ariel CHI  1991 5 M 5 M30 3
62 6:22:40 h   24.03.2018 50km  Siebert Maldonado, Alejandro Ernesto CHI  1990 16 M 14 M20 5
63 6:23:28 h   27.11.2021 50.3km  Bon Rebolledo, Jose Miguel CHI  1973 14 M 14 M45 2
64 6:23:28 h   27.11.2021 50.3km  Corral Pina, Carlos Andres CHI  1982 15 M 14 M35 5
65 6:23:47 h   27.11.2021 50.3km  Verdugo, Claudio CHI  1979 16 M 16 M40 3
66 6:23:49 h   08.11.2025 45km  Sanchez Zenteno, Rodrigo CHI  1983 16 M 14 M40 1
67 6:24:03 h   27.11.2022 50.3km  Vera Agurto, Francisco Javier CHI  1982 6 M 6 M40 2
68 6:24:06 h   08.11.2025 45km  Errazuriz Biancani, Nicolas CHI    17 M 15 #NA  
69 6:25:13 h   27.11.2021 50.3km  Fernandez Vargas, Manuel CHI  1976 17 M 17 M45 3
70 6:25:30 h   25.03.2017 49.2km  Vasquez Cavieres, Cavieres Daniel CHI  1982 14 M 12 M35 2
71 6:25:39 h   08.11.2025 45km  Escudero, Claudia Soledad ARG    18 F 3 #NA  
72 6:26:17 h   08.11.2025 45km  Farias, Patricio Eduardo CHI    19 M 16 #NA  
73 6:27:03 h   08.11.2025 45km  Urbano Meza, Nelson CHI    20 M 17 #NA  
74 6:27:31 h   27.11.2021 50.3km  Toro Betancourt, Jose Ariel CHI  1991 18 M 18 M30 4
75 6:27:42 h   08.11.2025 45km  Barra, Leonardo CHI  1981 21 M 18 M40 2
76 6:28:17 h   08.11.2025 45km  Nicolas, Oppliger CHI    22 M 19 #NA  
77 6:28:35 h   08.11.2025 45km  Antonio, Olivares von Igel CHI    23 M 20 #NA  
78 6:30:03 h   27.11.2021 50.3km  Bello Iturra, Iturra Jeannette CHI  1985 19 F 1 W35 1
79 6:31:38 h   08.11.2025 45km  Lopez, Natalia Elizabeth ARG  1981 24 F 4 W40 2
80 6:35:02 h   08.11.2025 45km  Hornig, Baros Jan Alexander CHI    25 M 21 #NA  
81 6:35:14 h   27.11.2021 50.3km  Jaramillo Mendoza, Viviana CHI  1973 20 F 2 W45 1
82 6:35:46 h   08.11.2025 45km  Droguett, Carla CHI    26 F 5 #NA  
83 6:37:36 h   08.11.2025 45km  Montory Scheihing, Christian CHI  1973 27 M 22 M50 1
84 6:38:03 h   08.11.2025 45km  Diaz Asenjo, Fermin CHI  1971 28 M 23 M50 2
85 6:38:18 h   25.03.2017 49.2km  Navarrete, Alejandro CHI  1980 15 M 13 M35 3
86 6:38:55 h   08.11.2025 45km  Mur, Maria Eugenia ARG  1979 29 F 6 W45 1
87 6:40:38 h   27.11.2021 50.3km  Meneses Farias, Carlos Raul CHI  1990 21 M 19 M30 5
88 6:41:05 h   27.11.2021 50.3km  Leon Ojeda, Javier CHI  1992 22 M 20 M20 4
89 6:41:48 h   24.03.2018 50km  Cardenas Vargas, Solangge Ivette CHI  1987 17 F 3 W30 2
90 6:42:11 h   25.03.2017 49.2km  Santoro Botti, Renzo CHI  1967 16 M 14 M50 1
91 6:43:54 h   08.11.2025 45km  Leal, Maria Cristina CHI    30 F 7 #NA  
92 6:44:14 h   27.11.2022 50.3km  Tapia Cardenas, Jaime CHI  1980 7 M 7 M40 3
93 6:45:54 h   27.11.2021 50.3km  Gonzalez, Patricio CHI  1978 23 M 21 M40 4
94 6:46:07 h   27.11.2021 50.3km  Baeza Nancupil, Isaac Andres CHI  1978 24 M 22 M40 5
95 6:48:11 h   08.11.2025 45km  de Laire, Maria Fernanda CHI  1982 31 F 8 W40 3
96 6:48:56 h   24.03.2018 50km  Jadue Salas, Freddy CHI  1976 18 M 15 M40 3
97 6:49:14 h   24.03.2018 50km  Molina, Jose CHI  1987 19 M 16 M30 4
98 6:50:32 h   24.03.2018 50km  Valenzuela, Oscar CHI  1987 20 M 17 M30 5
99 6:50:37 h   25.03.2017 49.2km  Rojas Montecinos, Luis Andres CHI  1990 17 M 15 M20 5
100 6:50:48 h   08.11.2025 45km  Macario, Cintia Elisabeth ARG  1981 32 F 9 W40 4
101 6:53:23 h   27.11.2022 50.3km  Pizarro, Jonathan CHI  1990 8 M 8 M30 4
102 6:53:54 h   08.11.2025 45km  Sepulveda, Pablo CHI    33 M 24 #NA  
103 6:54:22 h   24.03.2018 50km  Sanhueza Tello, Galindo Antonio CHI  1981 21 M 18 M35 3
104 6:56:02 h   27.11.2021 50.3km  Figueroa Gatica, Carlos Alberto CHI  1987 25 M 23 M30 6
105 6:56:08 h   08.11.2025 45km  Zidek, Raul ARG  1984 34 M 25 M40 3
106 6:56:53 h   08.11.2025 45km  Pimentel, Felipe CHI    35 M 26 #NA  
107 6:56:55 h   27.11.2021 50.3km  Acuna, Diego CHI  1994 26 M 24 M20 5
108 6:57:15 h   27.11.2021 50.3km  Carrasco , Sergio Marcelo CHI  1968 27 M 25 M50 1
109 6:57:38 h   08.11.2025 45km  Zalaquett, Jose Luis CHI  1979 36 M 27 M45 2
110 6:58:42 h   08.11.2025 45km  Conde, Ricardo ARG    37 M 28 #NA  
111 6:58:49 h   25.03.2017 49.2km  Jadue Salas, Freddy CHI  1976 18 M 16 M40 3
112 7:00:24 h   24.03.2018 50km  Pinto Aranda, Raul CHI  1981 22 M 19 M35 4
113 7:00:30 h   08.11.2025 45km  Garin Hoyng, Maria Cristina CHI  1968 38 F 10 W55 1
114 7:00:30 h   08.11.2025 45km  Perez Blanco, Gustavo CHI  1969 38 M 29 M55 2
115 7:00:50 h   24.03.2018 50km  Nigro, Roxana Gabriela ARG  1972 23 F 4 W45 1
116 7:03:12 h   08.11.2025 45km  Mansilla Godoy, Juan Arturo CHI    40 M 30 #NA  
117 7:04:38 h   08.11.2025 45km  Pedrals Pinochet, Sebastian Jorge CHI    41 M 31 #NA  
118 7:05:28 h   25.03.2017 49.2km  Ramirez Ormeno, Claudio Leonardo CHI  1989 19 M 17 M20 6
119 7:05:43 h   08.11.2025 45km  Valenzuela, Daniel CHI    42 M 32 #NA  
120 7:05:44 h   08.11.2025 45km  Abalos Ibarra, Tamara CHI    43 F 11 #NA  
121 7:06:34 h   24.03.2018 50km  Sanhueza Robles, Juan Carlos CHI  1960 24 M 20 M55 1
122 7:07:45 h   08.11.2025 45km  Daniel, Alejandro Torres CHI    44 M 33 #NA  
123 7:09:26 h   27.11.2022 50.3km  Clavijo Allancan, Graciela CHI  1988 9 F 1 W30 1
124 7:10:27 h   25.03.2017 49.2km  Figueroa, Santiago CHI  1982 20 M 18 M35 4
125 7:10:28 h   24.03.2018 50km  Saavedra Poblete, Robinson CHI  1992 25 M 21 M20 6
126 7:10:39 h   25.03.2017 49.2km  Garcia Saavedra, Caren CHI  1978 21 F 3 W35 1
127 7:11:49 h   25.03.2017 49.2km  Sanhueza Tello, Galindo Antonio CHI  1981 22 M 19 M35 5
128 7:14:15 h   08.11.2025 45km  Gellona Viejo, Tomas Arnaldo CHI  1989 45 M 34 M35 4
129 7:14:55 h   27.11.2022 50.3km  Martinez, Patricio CHI  1975 10 M 9 M45 1
130 7:16:11 h   27.11.2021 50.3km  Villegas Villegas, Jairo Elias CHI  1989 28 M 26 M30 7
131 7:16:40 h   27.11.2021 50.3km  Valdenegro Silva, Marcia CHI  1982 29 F 3 W35 2
132 7:17:36 h   24.03.2018 50km  Montecinos Olivarez, Isaac Johab CHI  1964 26 M 22 M50 2
133 7:17:38 h   27.11.2022 50.3km  Alvarez, Ricardo CHI  1980 11 M 10 M40 4
134 7:19:20 h   08.11.2025 45km  Godoy, Daniela CHI    46 F 12 #NA  
135 7:20:04 h   08.11.2025 45km  Ana, Sangiuliano ARG    47 F 13 #NA  
136 7:20:41 h   25.03.2017 49.2km  Parraguez Maldonado, Daniel CHI  1982 23 M 20 M35 6
137 7:20:47 h   27.11.2022 50.3km  Bou, Joaquin CHI  1985 12 M 11 M35 1
138 7:21:02 h   08.11.2025 45km  Contreras Olguin, Mackarena CHI    48 F 14 #NA  
139 7:21:37 h   27.11.2022 50.3km  Penafiel Godoy, Alicia CHI  1987 13 F 2 W35 1
140 7:23:51 h   24.03.2018 50km  Medina, Marcelo CHI  1975 27 M 23 M40 4
141 7:24:15 h   27.11.2021 50.3km  Fernandez, Luis CHI  1985 30 M 27 M35 6
142 7:24:30 h   24.03.2018 50km  Serandour, Guillaume FRA  1977 28 M 24 M40 5
143 7:24:35 h   24.03.2018 50km  Barra, Alejandra Loren ARG  1979 29 F 5 W35 1
144 7:24:59 h   25.03.2017 49.2km  Concha, Patricio Hernan CHI  1969 24 M 21 M45 1
145 7:26:06 h   25.03.2017 49.2km  Rey, Felipe CHI  1981 26 M 22 M35 7
146 7:26:06 h   25.03.2017 49.2km  Sanhueza Robles, Juan Carlos CHI  1960 25 M 22 M55 1
147 7:26:36 h   24.03.2018 50km  Sandoval, Hector Nelton ARG  1968 30 M 25 M50 3
148 7:27:04 h   27.11.2021 50.3km  Reyes Hernandez, Rodrigo Andres CHI  1981 31 M 28 M40 6
149 7:27:38 h   27.11.2021 50.3km  Perez Sanhueza, Nicolas Francisco CHI  1993 32 M 29 M20 6
150 7:28:17 h   27.11.2021 50.3km  Valle Brito, Rodrigo Antonio CHI  1995 33 M 30 M20 7
151 7:28:58 h   24.03.2018 50km  Lutz Mehech, Katherine CHI  1971 31 F 6 W45 2
152 7:31:58 h   25.03.2017 49.2km  Cardenas Bravo, Rene CHI  1979 27 M 24 M35 8
153 7:32:23 h   27.11.2022 50.3km  Miranda Garnica, Marco Antonio CHI  1984 14 M 12 M35 2
154 7:32:31 h   27.11.2021 50.3km  Sotomayor Meyer, Cristian Rafael CHI  1972 34 M 31 M45 4
155 7:32:52 h   24.03.2018 50km  Cares, Israel CHI  1978 34 M 26 M40 6
156 7:32:52 h   24.03.2018 50km  Gonzalez Merino, Joaquin CHI  1982 33 M 26 M35 5
157 7:32:52 h   24.03.2018 50km  Herrera Indo, Carmen Victoria CHI  1983 32 F 7 W35 2
158 7:33:00 h   25.03.2017 49.2km  Pelaez Janasik, Fabio ARG  1967 28 M 25 M50 2
159 7:33:01 h   25.03.2017 49.2km  Vial, Juan CHI  1984 29 M 26 M30 5
160 7:33:10 h   27.11.2022 50.3km  Gonzalez Burgos Alexis, Raul CHI  1981 15 M 13 M40 5
161 7:34:16 h   27.11.2022 50.3km  Jaramillo Mendoza, Viviana CHI  1973 16 F 3 W45 1
162 7:35:22 h   27.11.2021 50.3km  Oyarzun-Borquez, Claudia-Pamela CHI  1968 35 F 4 W50 1
163 7:35:27 h   25.03.2017 49.2km  Gonzalez Parra, Jorge Raul CHI  1981 30 M 27 M35 9
164 7:35:30 h   25.03.2017 49.2km  Valenzuela, Maximiliano Exequiel CHI  1981 31 M 28 M35 10
165 7:36:00 h   27.11.2022 50.3km  Sepulveda Gutierrez, Paz Isabel ARG  1978 17 F 4 W40 1
166 7:36:45 h   27.11.2021 50.3km  Burgos Bustos, Camilo CHI  1975 36 M 32 M45 5
167 7:39:00 h   27.11.2021 50.3km  Sanhueza Robles, Juan Carlos CHI  1960 37 M 33 M60 1
168 7:39:50 h   25.03.2017 49.2km  Jacobsen, Mario CHI  1973 32 M 29 M40 4
169 7:42:30 h   24.03.2018 50km  Quezada Fischer, Patricio Andres CHI  1984 35 M 28 M30 6
170 7:42:32 h   25.03.2017 49.2km  Villano, Mario ARG  1982 33 M 30 M35 11
171 7:44:33 h   27.11.2021 50.3km  Acuna, Gonzalo CHI  1991 38 M 34 M30 8
172 7:45:11 h   25.03.2017 49.2km  Herrera Indo, Carmen Victoria CHI  1983 34 F 4 W30 3
173 7:45:32 h   27.11.2021 50.3km  Leiva Huanca, Wildo CHI  1972 39 M 35 M45 6
174 7:45:40 h   24.03.2018 50km  Spoerer, Samuel CHI  1980 36 M 29 M35 6
175 7:46:00 h   25.03.2017 49.2km  Oliveros, Antonio CHI  1980 35 M 31 M35 12
176 7:48:34 h   08.11.2025 45km  Vargas Toro, Francisco Javier CHI    49 M 35 #NA  
177 7:49:21 h   08.11.2025 45km  Hidalgo, Evelyn Patricia CHI  1982 50 F 15 W40 5
178 7:51:00 h   25.03.2017 49.2km  Soto Rebolledo, Andres CHI  1981 36 M 32 M35 13
179 7:51:47 h   27.11.2021 50.3km  White Kemp, Christian CHI  1972 40 M 36 M45 7
180 7:54:39 h   24.03.2018 50km  Gonzalez Cabezas, Alejandro Enrique CHI  1980 37 M 30 M35 7
181 7:56:01 h   25.03.2017 49.2km  Sepulveda Contreras, Karen Andrea CHI  1979 37 F 5 W35 2
182 7:56:22 h   25.03.2017 49.2km  Asenjo Valladares, Sebastian Andres CHI  1991 38 M 33 M20 7
183 7:56:35 h   24.03.2018 50km  Budinich Murua, Erwin CHI  1988 38 M 31 M30 7
184 7:59:55 h   08.11.2025 45km  Errazuriz Biancani, Joaquin CHI    51 M 36 #NA  
185 8:02:14 h   08.11.2025 45km  Yanez Guzman, Jose Elias CHI    52 M 37 #NA  
186 8:03:54 h   27.11.2022 50.3km  Ascenzo, Enrique PER  1973 18 M 14 M45 2
187 8:04:40 h   25.03.2017 49.2km  Chandia, Pablo CHI  1979 39 M 34 M35 14
188 8:06:07 h   27.11.2022 50.3km  Ribecky, Gonzalo ARG  1987 19 M 15 M35 3
189 8:06:58 h   24.03.2018 50km  Llera, Diego ARG  1969 39 M 32 M45 2
190 8:08:03 h   25.03.2017 49.2km  Medina, Marcelo CHI  1975 40 M 35 M40 5
191 8:08:20 h   27.11.2021 50.3km  Baron Vidal, Juan Pablo CHI  1981 41 M 37 M40 7
192 8:09:36 h   27.11.2021 50.3km  Zimmermann Dagnino, Camila CHI  1980 42 F 5 W40 1
193 8:09:52 h   27.11.2022 50.3km  Sanchez Nunez, Marcelo Alejandro CHI  1986 20 M 16 M35 4
194 8:10:05 h   27.11.2021 50.3km  Herrera Rivera, Felipe CHI  1986 43 M 38 M35 7
195 8:11:07 h   27.11.2022 50.3km  Figueroa Gatica, Carlos Alberto CHI  1987 21 M 17 M35 5
196 8:11:56 h   08.11.2025 45km  Raul, Garaygorta ARG    53 M 38 #NA  
197 8:14:44 h   24.03.2018 50km  Vasquez, Laura Ivonne CHI  1976 40 F 8 W40 1
198 8:15:33 h   27.11.2021 50.3km  Pacheco Pacheco, Eduardo CHI  1979 44 M 39 M40 8
199 8:16:00 h   25.03.2017 49.2km  Saavedra Poblete, Robinson CHI  1992 41 M 36 M20 8
200 8:16:00 h   08.11.2025 45km  Montt Bartholomaus, Isabel CHI    54 F 16 #NA  
201 8:16:45 h   27.11.2021 50.3km  Vilches Vergara, Jonatan CHI  1989 45 M 40 M30 9
202 8:17:03 h   27.11.2021 50.3km  Bravo, Ricardo CHI  1959 46 M 41 M60 2
203 8:17:36 h   25.03.2017 49.2km  Galaz, Yeribert CHI  1989 42 M 37 M20 9
204 8:18:33 h   27.11.2022 50.3km  White Kemp, Christian CHI  1972 22 M 18 M50 1
205 8:20:23 h   24.03.2018 50km  Poblete Castillo, Daniela del Pilar CHI  1980 41 F 9 W35 3
206 8:20:24 h   24.03.2018 50km  Mansilla Villarroel, Alicia CHI  1983 42 F 10 W35 4
207 8:22:20 h   27.11.2022 50.3km  Zandee, Dirk CHI  1975 23 M 19 M45 3
208 8:23:16 h   24.03.2018 50km  Fernandez, Cristian CHI  1971 43 M 33 M45 3
209 8:25:00 h   25.03.2017 49.2km  Osorio, Paola CHI  1973 43 F 6 W40 1
210 8:25:35 h   25.03.2017 49.2km  Valdebenito Campos, David Esteban CHI  1976 44 M 38 M40 6
211 8:25:35 h   25.03.2017 49.2km  Soto Arias, Jacqueline Ross CHI  1979 45 F 7 W35 3
212 8:25:41 h   24.03.2018 50km  Rojas Jara, Leslie Carla CHI  1982 44 F 11 W35 5
213 8:25:52 h   25.03.2017 49.2km  Villalobos Mella, Alejandro Alberto CHI  1992 46 M 39 M20 10
214 8:25:54 h   25.03.2017 49.2km  Villalobos Mella, Sebastian Ignacio CHI  1986 47 M 40 M30 6
215 8:26:28 h   27.11.2022 50.3km  Cavalle Garrido, Alfonso CHI  1964 24 M 20 M55 1
216 8:26:49 h   08.11.2025 45km  Winkler Rietzsch, Alex CHI    55 M 39 #NA  
217 8:27:07 h   24.03.2018 50km  Nunez, Miriam CHI  1974 45 F 12 W40 2
218 8:27:26 h   08.11.2025 45km  Schnaidt Hagedorn, Paulina CHI  1978 56 F 17 W45 2
219 8:28:54 h   25.03.2017 49.2km  Araneda Fica, Edison Fernando CHI  1977 48 M 41 M40 7
220 8:29:32 h   24.03.2018 50km  Kemp, John CHI  1975 46 M 34 M40 7
221 8:30:20 h   24.03.2018 50km  Diaz Diaz, Francisca CHI  1992 47 F 13 W20 2
222 8:30:33 h   24.03.2018 50km  Falcon Argandona, Romina CHI  1981 48 F 14 W35 6
223 8:31:10 h   24.03.2018 50km  Ruiz, Luciano Martin ARG  1988 50 M 35 M30 8
224 8:31:10 h   24.03.2018 50km  Sari, Virginia ARG  1989 49 F 15 W20 3
225 8:32:00 h   27.11.2021 50.3km  Vargas Mussa, Claudio Mariano CHI  1964 47 M 42 M55 1
226 8:36:47 h   25.03.2017 49.2km  Quezada Fischer, Patricio Andres CHI  1984 49 M 42 M30 7
227 8:37:11 h   25.03.2017 49.2km  Sanhueza Fernandez, Claudia Evelyn CHI  1988 50 F 8 W20 1
228 8:40:04 h   27.11.2022 50.3km  Pauer, Ricardo Ernesto ARG  1977 25 M 21 M45 4
229 8:40:15 h   25.03.2017 49.2km  Faundez, Nicolas CHI  1979 51 M 43 M35 15
230 8:40:56 h   25.03.2017 49.2km  Perez, Fernando CHI  1974 52 M 44 M40 8
231 8:42:48 h   25.03.2017 49.2km  Moraga Castillo, Juan Carlos CHI  1955 53 M 45 M60 1
232 8:43:37 h   27.11.2021 50.3km  Miranda Flores, Cindy CHI  1981 48 F 6 W40 2
233 8:44:01 h   27.11.2022 50.3km  Del Pino, Maximiliano CHI  1980 26 M 22 M40 6
234 8:44:02 h   08.11.2025 45km  Lopez Portius, Cristian CHI    57 M 40 #NA  
235 8:47:27 h   27.11.2022 50.3km  Campos, Marco CHI  1983 27 M 23 M35 6
236 8:47:58 h   08.11.2025 45km  Gaete, Paulina CHI    58 F 18 #NA  
237 8:52:09 h   27.11.2022 50.3km  Jose Gonzalez Rojas, Maria CHI  1983 28 F 5 W35 2
238 8:53:04 h   27.11.2022 50.3km  Bravo Figueroa, Francisca CHI  1982 29 F 6 W40 2
239 9:05:57 h   24.03.2018 50km  Ojeda Arismendi, Elena CHI  1986 51 F 16 W30 3
240 9:07:52 h   27.11.2022 50.3km  Arias Valdivia, Oscar Armando CHI  1970 30 M 24 M50 2
241 9:08:04 h   24.03.2018 50km  Villanueva Candia, Jaime Jose CHI  1989 52 M 36 M20 7
242 9:19:46 h   08.11.2025 45km  Trangulao Tramolao, Susana Del Carmen CHI    59 F 19 #NA  
243 9:42:48 h   24.03.2018 50km  Gonzalez Astudillo, Javier Andres CHI  1975 54 M 37 M40 8
244 9:42:48 h   24.03.2018 50km  Subiabre Picticar, Patricia Susana CHI  1977 53 F 17 W40 3